Rechercher aéroport 
image banner adimage banner adimage banner ad
image banner ad

99CA - San Antonio Rgnl Hospital

Situé à Upland, United States

ICAO - 99CA, IATA -

Données fournies par Airmate  

Information générale

Coordonnées: N34°6'10" W117°38'10"
Élévation : 1274 feet MSL.
 
Voir autres Aéroports à California

Données opérationnelles

Special qualification required
Heure actuelle UTC:
Heure actuelle locale:
Météo à : KCCB - Cable ( 5 km )
METAR: KCCB 251535Z AUTO 00000KT 8SM CLR 21/16 A3001 RMK AO2
Voir NOTAMs / SUP AIP / TFR affectant cet aéroport [VIEW]
Fréquences de communication: [VIEW]

Pistes:

Coordonnées de l'aéroport

Adresse: Upland United States

Vue satellite de 99CA